createdAt,value
2022-12-25T00:01:18.084Z,47.58
2022-12-25T00:03:45.495Z,49.28
2022-12-25T00:06:12.557Z,42.13
2022-12-25T00:08:40.594Z,43.85
2022-12-25T00:11:12.287Z,52.22
2022-12-25T00:13:39.557Z,56.58
2022-12-25T00:16:20.040Z,49.88
2022-12-25T00:18:47.928Z,38.55
2022-12-25T00:21:15.365Z,44.73
2022-12-25T00:23:42.986Z,45.55
2022-12-25T00:26:13.797Z,49.70
2022-12-25T00:28:41.002Z,51.38
2022-12-25T00:31:10.327Z,47.75
2022-12-25T00:33:39.094Z,45.88
2022-12-25T00:36:07.252Z,48.33
2022-12-25T00:38:36.142Z,50.08
2022-12-25T00:41:09.025Z,45.67
2022-12-25T00:43:36.415Z,42.30
2022-12-25T00:46:05.181Z,45.07
2022-12-25T00:48:33.488Z,46.40
2022-12-25T00:51:02.864Z,49.17
2022-12-25T00:53:30.529Z,45.55
2022-12-25T00:56:04.593Z,46.42
2022-12-25T00:58:33.880Z,46.77
2022-12-25T01:01:00.961Z,44.27
2022-12-25T01:03:28.346Z,48.95
2022-12-25T01:06:01.481Z,42.03
2022-12-25T01:08:30.732Z,40.50
2022-12-25T01:11:03.865Z,39.83
2022-12-25T01:13:31.867Z,37.65
2022-12-25T01:15:58.805Z,37.53
2022-12-25T01:18:25.835Z,41.75
2022-12-25T01:20:52.760Z,35.40
2022-12-25T01:23:19.649Z,39.15
2022-12-25T01:25:46.570Z,38.60
2022-12-25T01:28:13.689Z,34.65
2022-12-25T01:30:40.584Z,37.22
2022-12-25T01:33:07.530Z,41.92
2022-12-25T01:35:34.416Z,38.72
2022-12-25T01:38:01.289Z,42.03
2022-12-25T01:40:28.135Z,35.97
2022-12-25T01:42:55.181Z,37.27
2022-12-25T01:45:42.111Z,34.72
2022-12-25T01:48:14.564Z,35.67
2022-12-25T01:50:46.026Z,35.78
2022-12-25T01:53:13.347Z,38.08
2022-12-25T01:55:42.322Z,37.70
2022-12-25T01:58:10.044Z,40.90
2022-12-25T02:00:37.079Z,40.63
2022-12-25T02:03:04.365Z,34.80
2022-12-25T02:05:34.258Z,39.43
2022-12-25T02:08:06.463Z,39.50
2022-12-25T02:10:33.371Z,44.67
2022-12-25T02:13:01.265Z,35.03
2022-12-25T02:15:39.450Z,33.63
2022-12-25T02:18:16.197Z,39.60
2022-12-25T02:21:02.498Z,40.30
2022-12-25T02:23:44.672Z,44.03
2022-12-25T02:26:49.245Z,41.25
2022-12-25T02:29:41.040Z,40.13
2022-12-25T02:32:10.959Z,43.08
2022-12-25T02:35:28.465Z,41.05
2022-12-25T02:38:36.234Z,49.73
2022-12-25T02:41:10.174Z,41.53
2022-12-25T02:44:00.178Z,36.88
2022-12-25T02:46:47.428Z,46.20
2022-12-25T02:49:41.895Z,42.10
2022-12-25T02:52:41.077Z,44.88
2022-12-25T02:55:37.488Z,44.90
2022-12-25T02:58:37.088Z,34.88
2022-12-25T03:01:30.779Z,41.92
2022-12-25T03:04:28.825Z,38.30
2022-12-25T03:07:18.445Z,41.35
2022-12-25T03:10:15.557Z,36.30
2022-12-25T03:12:51.902Z,45.25
2022-12-25T03:15:39.085Z,45.90
2022-12-25T03:18:17.487Z,34.65
2022-12-25T03:21:02.954Z,39.78
2022-12-25T03:24:12.137Z,39.10
2022-12-25T03:26:54.881Z,43.55
2022-12-25T03:29:52.817Z,38.33
2022-12-25T03:32:37.601Z,38.60
2022-12-25T03:35:30.524Z,41.38
2022-12-25T03:38:34.040Z,39.83
2022-12-25T03:41:31.990Z,39.22
2022-12-25T03:44:33.298Z,40.77
2022-12-25T03:47:35.246Z,43.90
2022-12-25T03:50:35.992Z,47.35
2022-12-25T03:53:30.818Z,37.70
2022-12-25T03:56:17.822Z,46.85
2022-12-25T03:59:22.900Z,40.75
2022-12-25T04:02:10.529Z,38.30
2022-12-25T04:04:56.954Z,36.83
2022-12-25T04:07:42.386Z,45.35
2022-12-25T04:10:28.699Z,38.42
2022-12-25T04:13:13.952Z,35.88
2022-12-25T04:15:59.215Z,35.35
2022-12-25T04:18:44.561Z,36.33
2022-12-25T04:21:29.933Z,32.73
2022-12-25T04:24:15.369Z,31.20
2022-12-25T04:27:00.765Z,31.40
2022-12-25T04:29:46.217Z,30.55
2022-12-25T04:32:31.756Z,34.35
2022-12-25T04:35:17.024Z,38.55
2022-12-25T04:37:43.901Z,33.13
2022-12-25T04:40:11.097Z,30.58
2022-12-25T04:42:38.058Z,30.80
2022-12-25T04:45:05.252Z,32.40
2022-12-25T04:47:33.313Z,35.05
2022-12-25T04:50:00.299Z,36.42
2022-12-25T04:52:27.209Z,37.03
2022-12-25T04:54:54.072Z,36.63
2022-12-25T04:57:20.947Z,29.25
2022-12-25T04:59:47.812Z,25.33
2022-12-25T05:02:15.158Z,29.35
2022-12-25T05:04:42.140Z,28.20
2022-12-25T05:07:09.017Z,25.70
2022-12-25T05:09:35.920Z,31.33
2022-12-25T05:12:02.926Z,28.97
2022-12-25T05:14:29.773Z,27.10
2022-12-25T05:16:56.724Z,26.55
2022-12-25T05:19:23.731Z,18.60
2022-12-25T05:21:50.634Z,21.15
2022-12-25T05:24:17.507Z,20.63
2022-12-25T05:26:44.500Z,20.50
2022-12-25T05:29:11.467Z,23.58
2022-12-25T05:31:38.339Z,16.88
2022-12-25T05:34:05.290Z,20.60
2022-12-25T05:36:32.195Z,22.02
2022-12-25T05:38:59.273Z,23.63
2022-12-25T05:41:30.726Z,19.92
2022-12-25T05:44:01.002Z,20.10
2022-12-25T05:46:27.982Z,22.73
2022-12-25T05:48:54.856Z,19.40
2022-12-25T05:51:21.827Z,19.60
2022-12-25T05:53:48.802Z,17.65
2022-12-25T05:56:15.784Z,17.23
2022-12-25T05:58:42.937Z,18.70
2022-12-25T06:01:25.707Z,17.03
2022-12-25T06:03:52.914Z,18.48
2022-12-25T06:06:19.922Z,21.58
2022-12-25T06:08:47.097Z,17.50
2022-12-25T06:11:15.056Z,21.48
2022-12-25T06:13:42.279Z,17.90
2022-12-25T06:16:11.596Z,24.17
2022-12-25T06:18:40.827Z,14.20
2022-12-25T06:21:09.284Z,18.00
2022-12-25T06:23:37.228Z,16.15
2022-12-25T06:26:10.014Z,15.83
2022-12-25T06:28:37.282Z,15.73
2022-12-25T06:31:08.460Z,20.02
2022-12-25T06:33:35.608Z,16.25
2022-12-25T06:36:10.920Z,19.83
2022-12-25T06:38:38.434Z,16.15
2022-12-25T06:41:07.279Z,13.85
2022-12-25T06:43:34.416Z,19.33
2022-12-25T06:46:06.365Z,16.65
2022-12-25T06:48:37.877Z,17.15
2022-12-25T06:51:05.936Z,13.52
2022-12-25T06:53:39.634Z,16.60
2022-12-25T06:56:09.720Z,13.75
2022-12-25T06:58:36.657Z,14.05
2022-12-25T07:01:15.477Z,13.93
2022-12-25T07:03:44.849Z,12.82
2022-12-25T07:06:11.902Z,11.13
2022-12-25T07:08:41.950Z,12.27
2022-12-25T07:11:09.014Z,12.02
2022-12-25T07:13:35.949Z,17.42
2022-12-25T07:16:04.897Z,9.57
2022-12-25T07:18:32.171Z,16.40
2022-12-25T07:21:00.253Z,12.98
2022-12-25T07:23:27.274Z,12.15
2022-12-25T07:25:55.397Z,11.38
2022-12-25T07:28:22.330Z,10.82
2022-12-25T07:30:49.352Z,12.10
2022-12-25T07:33:16.555Z,7.53
2022-12-25T07:35:43.620Z,9.68
2022-12-25T07:38:10.795Z,13.50
2022-12-25T07:40:37.888Z,6.18
2022-12-25T07:43:04.814Z,10.20
2022-12-25T07:45:31.836Z,8.93
2022-12-25T07:48:04.329Z,16.60
2022-12-25T07:50:32.434Z,9.27
2022-12-25T07:52:59.451Z,12.32
2022-12-25T07:55:26.352Z,10.20
2022-12-25T07:57:53.261Z,11.63
2022-12-25T08:00:20.594Z,11.65
2022-12-25T08:02:50.996Z,15.20
2022-12-25T08:05:18.039Z,15.45
2022-12-25T08:07:44.997Z,10.70
2022-12-25T08:10:11.977Z,13.15
2022-12-25T08:12:38.875Z,12.82
2022-12-25T08:15:06.393Z,14.07
2022-12-25T08:17:35.326Z,13.30
2022-12-25T08:20:02.253Z,13.50
2022-12-25T08:22:29.145Z,12.70
2022-12-25T08:24:56.087Z,10.32
2022-12-25T08:27:23.003Z,10.82
2022-12-25T08:29:49.835Z,13.63
2022-12-25T08:32:16.724Z,11.70
2022-12-25T08:34:43.688Z,12.35
2022-12-25T08:37:10.608Z,12.85
2022-12-25T08:39:37.542Z,12.68
2022-12-25T08:42:04.606Z,16.52
2022-12-25T08:44:31.427Z,13.18
2022-12-25T08:46:58.341Z,15.65
2022-12-25T08:49:27.422Z,13.05
2022-12-25T08:51:54.539Z,12.73
2022-12-25T08:54:21.537Z,10.75
2022-12-25T08:56:48.435Z,12.93
2022-12-25T08:59:15.356Z,15.73
2022-12-25T09:01:42.343Z,12.15
2022-12-25T09:04:09.386Z,17.27
2022-12-25T09:06:36.289Z,16.85
2022-12-25T09:09:03.260Z,15.25
2022-12-25T09:11:30.229Z,15.90
2022-12-25T09:13:57.118Z,14.68
2022-12-25T09:16:24.135Z,16.35
2022-12-25T09:18:51.493Z,20.75
2022-12-25T09:21:18.956Z,13.70
2022-12-25T09:23:45.874Z,13.75
2022-12-25T09:26:16.021Z,13.73
2022-12-25T09:28:50.144Z,11.20
2022-12-25T09:31:19.172Z,9.77
2022-12-25T09:33:46.142Z,7.15
2022-12-25T09:36:13.046Z,9.82
2022-12-25T09:38:40.017Z,12.75
2022-12-25T09:41:36.121Z,11.45
2022-12-25T09:44:06.678Z,11.32
2022-12-25T09:46:50.810Z,9.27
2022-12-25T09:49:38.841Z,11.23
2022-12-25T09:52:16.359Z,11.70
2022-12-25T09:55:21.107Z,8.77
2022-12-25T09:57:54.614Z,8.70
2022-12-25T10:00:25.274Z,12.50
2022-12-25T10:03:07.452Z,12.98
2022-12-25T10:05:57.824Z,15.13
2022-12-25T10:08:49.704Z,10.73
2022-12-25T10:11:31.417Z,11.13
2022-12-25T10:14:09.956Z,13.33
2022-12-25T10:16:54.841Z,9.30
2022-12-25T10:19:35.021Z,12.23
2022-12-25T10:22:09.174Z,13.18
2022-12-25T10:24:42.666Z,10.00
2022-12-25T10:27:22.258Z,19.23
2022-12-25T10:29:54.095Z,17.17
2022-12-25T10:32:21.622Z,24.80
2022-12-25T10:34:49.625Z,13.93
2022-12-25T10:37:17.120Z,10.70
2022-12-25T10:39:46.890Z,13.57
2022-12-25T10:42:39.588Z,12.80
2022-12-25T10:45:09.329Z,14.93
2022-12-25T10:47:42.020Z,14.10
2022-12-25T10:50:10.799Z,11.70
2022-12-25T10:52:51.908Z,14.73
2022-12-25T10:55:25.113Z,11.10
2022-12-25T10:57:55.622Z,11.55
2022-12-25T11:00:24.996Z,14.18
2022-12-25T11:02:52.596Z,17.42
2022-12-25T11:05:31.358Z,17.98
2022-12-25T11:08:00.936Z,18.65
2022-12-25T11:10:31.967Z,21.05
2022-12-25T11:13:00.550Z,14.90
2022-12-25T11:15:41.931Z,22.50
2022-12-25T11:18:23.446Z,15.57
2022-12-25T11:20:54.334Z,14.10
2022-12-25T11:23:24.118Z,19.35
2022-12-25T11:26:04.565Z,17.15
2022-12-25T11:28:34.618Z,18.27
2022-12-25T11:31:03.402Z,13.95
2022-12-25T11:33:36.656Z,16.80
2022-12-25T11:36:15.907Z,14.57
2022-12-25T11:38:42.808Z,21.90
2022-12-25T11:41:12.972Z,16.38
2022-12-25T11:43:46.859Z,20.67
2022-12-25T11:46:20.090Z,23.00
2022-12-25T11:49:08.302Z,19.70
2022-12-25T11:51:39.296Z,25.80
2022-12-25T11:54:17.227Z,20.48
2022-12-25T11:56:44.172Z,17.15
2022-12-25T11:59:26.001Z,15.73
2022-12-25T12:02:09.209Z,22.30
2022-12-25T12:04:43.146Z,21.67
2022-12-25T12:07:20.037Z,28.80
2022-12-25T12:10:23.981Z,23.00
2022-12-25T12:13:15.089Z,21.20
2022-12-25T12:15:43.766Z,17.00
2022-12-25T12:18:19.817Z,22.23
2022-12-25T12:21:21.116Z,21.38
2022-12-25T12:24:14.069Z,15.55
2022-12-25T12:26:44.346Z,21.40
2022-12-25T12:29:40.873Z,20.08
2022-12-25T12:32:35.422Z,17.02
2022-12-25T12:35:30.344Z,15.70
2022-12-25T12:38:04.652Z,20.77
2022-12-25T12:40:39.183Z,16.77
2022-12-25T12:43:22.061Z,20.92
2022-12-25T12:45:56.390Z,24.87
2022-12-25T12:48:27.562Z,17.85
2022-12-25T12:51:09.714Z,21.60
2022-12-25T12:53:39.410Z,20.25
2022-12-25T12:56:16.011Z,17.63
2022-12-25T12:58:49.892Z,18.95
2022-12-25T13:01:41.620Z,23.50
2022-12-25T13:04:31.848Z,20.90
2022-12-25T13:07:11.344Z,21.97
2022-12-25T13:10:06.309Z,20.13
2022-12-25T13:12:33.845Z,18.38
2022-12-25T13:15:01.052Z,20.38
2022-12-25T13:17:29.275Z,22.98
2022-12-25T13:19:58.863Z,23.02
2022-12-25T13:22:36.523Z,25.80
2022-12-25T13:25:07.732Z,30.03
2022-12-25T13:27:34.767Z,31.48
2022-12-25T13:30:18.910Z,33.55
2022-12-25T13:32:46.266Z,44.42
2022-12-25T13:35:15.609Z,33.67
2022-12-25T13:37:43.705Z,59.58
2022-12-25T13:40:22.053Z,41.08
2022-12-25T13:42:50.101Z,33.22
2022-12-25T13:45:28.978Z,27.95
2022-12-25T13:47:56.411Z,26.35
2022-12-25T13:50:28.235Z,26.40
2022-12-25T13:52:57.746Z,30.50
2022-12-25T13:55:29.314Z,23.58
2022-12-25T13:57:59.298Z,25.98
2022-12-25T14:00:33.669Z,24.85
2022-12-25T14:03:00.980Z,28.35
2022-12-25T14:05:30.664Z,23.67
2022-12-25T14:08:03.472Z,29.50
2022-12-25T14:10:34.730Z,27.20
2022-12-25T14:13:05.782Z,29.25
2022-12-25T14:15:36.378Z,31.75
2022-12-25T14:18:03.751Z,27.73
2022-12-25T14:20:42.534Z,34.38
2022-12-25T14:23:24.828Z,29.30
2022-12-25T14:25:54.400Z,25.60
2022-12-25T14:28:25.517Z,29.80
2022-12-25T14:30:54.410Z,31.55
2022-12-25T14:33:26.836Z,30.05
2022-12-25T14:35:54.325Z,35.78
2022-12-25T14:38:28.126Z,31.60
2022-12-25T14:41:37.083Z,31.98
2022-12-25T14:44:30.427Z,33.97
2022-12-25T14:47:10.615Z,30.58
2022-12-25T14:49:39.946Z,30.88
2022-12-25T14:52:24.298Z,34.95
2022-12-25T14:55:11.690Z,31.17
2022-12-25T14:57:40.277Z,30.95
2022-12-25T15:00:29.849Z,38.58
2022-12-25T15:02:58.400Z,37.17
2022-12-25T15:05:43.690Z,40.33
2022-12-25T15:08:13.332Z,39.47
2022-12-25T15:13:30.454Z,33.67
2022-12-25T15:16:17.052Z,32.13
2022-12-25T15:18:46.399Z,35.38
2022-12-25T15:21:21.035Z,38.13
2022-12-25T15:23:48.000Z,38.97
2022-12-25T15:26:16.033Z,35.25
2022-12-25T15:28:42.993Z,42.92
2022-12-25T15:31:22.288Z,43.10
2022-12-25T15:33:49.833Z,45.60
2022-12-25T15:36:16.855Z,45.00
2022-12-25T15:38:44.151Z,40.00
2022-12-25T15:41:36.451Z,39.70
2022-12-25T15:44:05.263Z,36.83
2022-12-25T15:46:32.581Z,36.20
2022-12-25T15:48:59.928Z,39.45
2022-12-25T15:51:27.421Z,40.30
2022-12-25T15:53:54.360Z,39.73
2022-12-25T15:56:22.577Z,41.80
2022-12-25T15:58:49.911Z,53.00
2022-12-25T16:01:18.709Z,51.38
2022-12-25T16:03:46.738Z,61.55
2022-12-25T16:06:15.911Z,60.67
2022-12-25T16:08:43.238Z,67.80
2022-12-25T16:11:10.660Z,69.65
2022-12-25T16:13:37.853Z,63.70
2022-12-25T16:16:05.314Z,65.80
2022-12-25T16:18:32.209Z,71.43
2022-12-25T16:20:59.680Z,72.28
2022-12-25T16:23:26.945Z,66.07
2022-12-25T16:25:54.050Z,62.70
2022-12-25T16:28:21.073Z,55.97
2022-12-25T16:30:48.188Z,62.17
2022-12-25T16:33:15.590Z,63.22
2022-12-25T16:35:42.509Z,67.78
2022-12-25T16:38:09.431Z,54.55
2022-12-25T16:40:36.368Z,61.63
2022-12-25T16:43:03.656Z,74.18
2022-12-25T16:45:30.696Z,70.95
2022-12-25T16:47:57.809Z,78.43
2022-12-25T16:50:24.853Z,104.07
2022-12-25T16:52:51.964Z,71.28
2022-12-25T16:55:18.830Z,87.65
2022-12-25T16:57:48.385Z,89.05
2022-12-25T17:00:15.793Z,80.80
2022-12-25T17:02:43.794Z,205.50
2022-12-25T17:05:10.876Z,351.10
2022-12-25T17:07:37.943Z,373.23
2022-12-25T17:10:06.427Z,344.02
2022-12-25T17:12:34.000Z,559.55
2022-12-25T17:15:00.904Z,305.00
2022-12-25T17:17:27.814Z,363.63
2022-12-25T17:19:54.715Z,376.77
2022-12-25T17:22:21.738Z,340.17
2022-12-25T17:24:48.587Z,392.85
2022-12-25T17:27:15.596Z,261.20
2022-12-25T17:29:43.947Z,499.07
2022-12-25T17:32:12.680Z,503.23
2022-12-25T17:34:39.803Z,437.92
2022-12-25T17:37:07.048Z,554.28
2022-12-25T17:39:33.939Z,523.55
2022-12-25T17:42:00.992Z,508.13
2022-12-25T17:44:27.979Z,476.38
2022-12-25T17:46:55.011Z,445.00
2022-12-25T17:49:22.921Z,513.45
2022-12-25T17:51:49.939Z,479.48
2022-12-25T17:54:17.067Z,595.30
2022-12-25T17:56:44.134Z,514.13
2022-12-25T17:59:18.620Z,428.60
2022-12-25T18:01:47.168Z,285.58
2022-12-25T18:04:14.733Z,312.77
2022-12-25T18:06:41.875Z,287.60
2022-12-25T18:09:11.091Z,355.85
2022-12-25T18:11:43.255Z,504.37
2022-12-25T18:14:15.189Z,472.85
2022-12-25T18:16:45.026Z,367.67
2022-12-25T18:19:13.320Z,304.60
2022-12-25T18:21:40.304Z,309.42
2022-12-25T18:24:08.127Z,551.40
2022-12-25T18:26:35.729Z,535.97
2022-12-25T18:29:03.819Z,545.38
2022-12-25T18:31:31.925Z,478.63
2022-12-25T18:34:00.005Z,420.27
2022-12-25T18:36:30.234Z,453.08
2022-12-25T18:38:58.327Z,402.50
2022-12-25T18:41:28.063Z,376.02
2022-12-25T18:43:55.987Z,464.23
2022-12-25T18:46:25.755Z,477.70
2022-12-25T18:48:54.897Z,501.52
2022-12-25T18:51:22.154Z,616.65
2022-12-25T18:53:49.159Z,552.83
2022-12-25T18:56:18.266Z,728.58
2022-12-25T18:58:46.619Z,584.05
2022-12-25T19:01:22.524Z,535.30
2022-12-25T19:03:50.590Z,574.58
2022-12-25T19:06:26.349Z,603.00
2022-12-25T19:08:54.146Z,624.70
2022-12-25T19:11:21.815Z,654.42
2022-12-25T19:13:48.911Z,617.78
2022-12-25T19:16:16.922Z,641.65
2022-12-25T19:18:45.645Z,633.42
2022-12-25T19:21:12.639Z,461.02
2022-12-25T19:23:39.888Z,557.05
2022-12-25T19:26:08.544Z,534.45
2022-12-25T19:28:38.654Z,501.98
2022-12-25T19:31:07.540Z,536.20
2022-12-25T19:33:35.957Z,562.13
2022-12-25T19:36:12.201Z,559.80
2022-12-25T19:38:39.723Z,569.35
2022-12-25T19:41:17.428Z,509.55
2022-12-25T19:43:47.717Z,453.80
2022-12-25T19:46:27.164Z,426.13
2022-12-25T19:48:55.706Z,573.60
2022-12-25T19:51:27.837Z,478.35
2022-12-25T19:53:59.040Z,403.55
2022-12-25T19:56:27.767Z,431.70
2022-12-25T19:58:55.504Z,422.00
2022-12-25T20:01:25.422Z,405.45
2022-12-25T20:03:52.622Z,323.15
2022-12-25T20:06:24.805Z,315.03
2022-12-25T20:08:57.778Z,340.27
2022-12-25T20:11:27.015Z,369.90
2022-12-25T20:13:54.692Z,252.27
2022-12-25T20:16:23.009Z,273.90
2022-12-25T20:18:49.968Z,306.10
2022-12-25T20:21:19.443Z,308.13
2022-12-25T20:23:48.027Z,339.42
2022-12-25T20:26:17.252Z,327.15
2022-12-25T20:28:44.663Z,349.45
2022-12-25T20:31:29.033Z,310.15
2022-12-25T20:33:58.308Z,313.48
2022-12-25T20:36:28.536Z,346.48
2022-12-25T20:38:59.676Z,372.00
2022-12-25T20:41:28.573Z,378.67
2022-12-25T20:43:57.177Z,362.73
2022-12-25T20:46:25.246Z,312.15
2022-12-25T20:48:53.089Z,342.50
2022-12-25T20:51:23.061Z,319.70
2022-12-25T20:53:50.652Z,292.10
2022-12-25T20:56:19.561Z,349.38
2022-12-25T20:58:46.484Z,302.55
2022-12-25T21:01:16.098Z,295.30
2022-12-25T21:03:43.931Z,298.30
2022-12-25T21:06:12.009Z,315.52
2022-12-25T21:08:41.060Z,346.00
2022-12-25T21:11:08.555Z,316.08
2022-12-25T21:13:41.150Z,311.05
2022-12-25T21:16:13.911Z,320.40
2022-12-25T21:18:41.049Z,294.92
2022-12-25T21:21:08.906Z,231.98
2022-12-25T21:23:37.402Z,230.13
2022-12-25T21:26:19.477Z,229.25
2022-12-25T21:28:50.691Z,202.02
2022-12-25T21:31:18.344Z,198.35
2022-12-25T21:33:52.282Z,169.02
2022-12-25T21:36:34.413Z,148.02
2022-12-25T21:39:06.518Z,138.82
2022-12-25T21:41:35.224Z,130.50
2022-12-25T21:44:02.226Z,145.63
2022-12-25T21:46:29.427Z,150.25
2022-12-25T21:48:56.992Z,149.60
2022-12-25T21:51:44.786Z,143.05
2022-12-25T21:54:13.137Z,125.22
2022-12-25T21:56:44.794Z,119.63
2022-12-25T21:59:19.183Z,130.40
2022-12-25T22:01:46.682Z,106.75
2022-12-25T22:04:15.913Z,90.93
2022-12-25T22:07:02.104Z,100.97
2022-12-25T22:09:29.169Z,100.70
2022-12-25T22:12:15.659Z,92.07
2022-12-25T22:14:57.090Z,88.27
2022-12-25T22:18:04.976Z,91.32
2022-12-25T22:20:37.237Z,94.35
2022-12-25T22:23:04.599Z,86.35
2022-12-25T22:25:31.681Z,85.95
2022-12-25T22:27:58.648Z,77.27
2022-12-25T22:30:27.795Z,83.63
2022-12-25T22:32:55.005Z,82.00
2022-12-25T22:35:21.992Z,79.38
2022-12-25T22:37:49.879Z,89.88
2022-12-25T22:40:18.811Z,81.78
2022-12-25T22:42:45.801Z,76.82
2022-12-25T22:45:13.022Z,80.30
2022-12-25T22:47:40.639Z,81.68
2022-12-25T22:50:08.560Z,80.20
2022-12-25T22:52:36.511Z,87.28
2022-12-25T22:55:04.686Z,88.47
2022-12-25T22:57:31.764Z,77.93
2022-12-25T22:59:58.976Z,72.40
2022-12-25T23:02:26.181Z,76.35
2022-12-25T23:04:53.362Z,77.15
2022-12-25T23:07:20.260Z,87.00
2022-12-25T23:09:47.222Z,76.47
2022-12-25T23:12:32.661Z,83.75
2022-12-25T23:14:59.654Z,82.73
2022-12-25T23:17:45.251Z,77.20
2022-12-25T23:20:33.220Z,55.92
2022-12-25T23:23:19.427Z,59.27
2022-12-25T23:26:05.560Z,62.80
2022-12-25T23:28:50.837Z,69.72
2022-12-25T23:31:18.523Z,80.10
2022-12-25T23:33:45.459Z,74.80
2022-12-25T23:36:12.366Z,73.57
2022-12-25T23:38:39.251Z,85.55
2022-12-25T23:41:06.286Z,69.60
2022-12-25T23:43:33.148Z,72.40
2022-12-25T23:46:00.177Z,78.80
2022-12-25T23:48:27.391Z,81.45
2022-12-25T23:50:54.338Z,86.25
2022-12-25T23:53:21.221Z,88.87
2022-12-25T23:55:55.262Z,85.25
2022-12-25T23:58:22.733Z,97.43
